Аэропорт: Байкал. Улан-Удэ

ICAO: UIUU

METAR:
2021-07-28 15:00:00
UIUU 281500Z 10003MPS 9999 NSC 18/14 Q1003 R26/CLRD60 NOSIG RMK QFE709/0945
METAR:
2021-07-28 14:00:00
TAF UIUU 281400Z 2815/2915 09005G10MPS 9999 SCT040CB TEMPO 2815/2903 03003MPS